createdAt,value
2022-08-10T00:01:56.626Z,100.00
2022-08-10T00:04:25.494Z,100.00
2022-08-10T00:06:55.727Z,100.00
2022-08-10T00:09:25.287Z,100.00
2022-08-10T00:11:53.906Z,100.00
2022-08-10T00:14:23.039Z,100.00
2022-08-10T00:16:51.739Z,100.00
2022-08-10T00:19:20.461Z,100.00
2022-08-10T00:21:51.430Z,100.00
2022-08-10T00:24:19.952Z,100.00
2022-08-10T00:27:51.709Z,100.00
2022-08-10T00:29:37.253Z,100.00
2022-08-10T00:32:06.094Z,100.00
2022-08-10T00:34:35.627Z,100.00
2022-08-10T00:37:04.266Z,100.00
2022-08-10T00:39:36.291Z,100.00
2022-08-10T00:42:11.313Z,100.00
2022-08-10T00:44:48.930Z,100.00
2022-08-10T00:47:37.406Z,100.00
2022-08-10T00:50:08.860Z,100.00
2022-08-10T00:52:39.731Z,100.00
2022-08-10T00:55:08.842Z,100.00
2022-08-10T00:57:39.771Z,100.00
2022-08-10T01:00:10.402Z,100.00
2022-08-10T01:02:39.489Z,100.00
2022-08-10T01:05:13.473Z,100.00
2022-08-10T01:07:56.454Z,100.00
2022-08-10T01:10:57.000Z,100.00
2022-08-10T01:13:34.875Z,100.00
2022-08-10T01:16:32.212Z,100.00
2022-08-10T01:19:32.795Z,100.00
2022-08-10T01:22:38.009Z,100.00
2022-08-10T01:25:33.636Z,100.00
2022-08-10T01:28:32.551Z,100.00
2022-08-10T01:31:03.380Z,100.00
2022-08-10T01:33:58.575Z,100.00
2022-08-10T01:36:46.418Z,100.00
2022-08-10T01:39:26.448Z,100.00
2022-08-10T01:42:03.009Z,100.00
2022-08-10T01:44:36.740Z,100.00
2022-08-10T01:47:31.707Z,100.00
2022-08-10T01:50:21.316Z,100.00
2022-08-10T01:52:54.485Z,100.00
2022-08-10T01:55:24.405Z,100.00
2022-08-10T01:57:54.966Z,100.00
2022-08-10T02:00:23.709Z,100.00
2022-08-10T02:02:54.966Z,100.00
2022-08-10T02:05:26.687Z,100.00
2022-08-10T02:07:58.555Z,100.00
2022-08-10T02:10:28.756Z,100.00
2022-08-10T02:12:59.585Z,100.00
2022-08-10T02:15:32.438Z,100.00
2022-08-10T02:18:06.275Z,100.00
2022-08-10T02:20:52.567Z,100.00
2022-08-10T02:23:26.743Z,100.00
2022-08-10T02:25:58.394Z,100.00
2022-08-10T02:28:31.274Z,100.00
2022-08-10T02:31:11.711Z,100.00
2022-08-10T02:33:56.474Z,100.00
2022-08-10T02:36:30.870Z,100.00
2022-08-10T02:39:03.069Z,100.00
2022-08-10T02:42:17.993Z,100.00
2022-08-10T02:45:18.931Z,100.00
2022-08-10T02:47:51.607Z,100.00
2022-08-10T02:50:30.496Z,100.00
2022-08-10T02:53:55.052Z,100.00
2022-08-10T02:56:16.221Z,100.00
2022-08-10T02:59:21.967Z,100.00
2022-08-10T03:01:54.245Z,100.00
2022-08-10T03:04:55.462Z,100.00
2022-08-10T03:07:43.281Z,100.00
2022-08-10T03:10:14.543Z,100.00
2022-08-10T03:12:44.972Z,100.00
2022-08-10T03:15:16.169Z,100.00
2022-08-10T03:17:56.741Z,100.00
2022-08-10T03:20:36.869Z,100.00
2022-08-10T03:23:23.067Z,100.00
2022-08-10T03:25:54.867Z,100.00
2022-08-10T03:28:26.048Z,100.00
2022-08-10T03:30:56.038Z,100.00
2022-08-10T03:33:28.588Z,99.64
2022-08-10T03:36:41.229Z,100.00
2022-08-10T03:38:47.219Z,99.88
2022-08-10T03:41:17.849Z,100.00
2022-08-10T03:43:50.164Z,99.13
2022-08-10T03:46:25.187Z,98.91
2022-08-10T03:48:57.083Z,99.19
2022-08-10T03:51:28.487Z,97.62
2022-08-10T03:54:06.231Z,97.40
2022-08-10T03:56:37.787Z,98.21
2022-08-10T03:59:08.561Z,95.54
2022-08-10T04:02:46.746Z,97.03
2022-08-10T04:04:26.476Z,97.90
2022-08-10T04:07:00.109Z,97.30
2022-08-10T04:09:55.495Z,97.73
2022-08-10T04:12:23.150Z,97.19
2022-08-10T04:14:53.109Z,98.42
2022-08-10T04:17:59.309Z,97.26
2022-08-10T04:20:29.973Z,97.76
2022-08-10T04:23:09.276Z,99.17
2022-08-10T04:25:39.599Z,96.55
2022-08-10T04:28:09.907Z,94.78
2022-08-10T04:30:40.130Z,96.27
2022-08-10T04:33:10.839Z,97.10
2022-08-10T04:35:41.262Z,94.65
2022-08-10T04:38:11.150Z,95.40
2022-08-10T04:40:39.951Z,97.26
2022-08-10T04:43:12.878Z,97.78
2022-08-10T04:45:48.578Z,98.13
2022-08-10T04:48:42.658Z,95.24
2022-08-10T04:51:19.366Z,92.99
2022-08-10T04:54:03.887Z,96.20
2022-08-10T04:56:40.573Z,96.03
2022-08-10T04:59:11.702Z,93.72
2022-08-10T05:02:27.951Z,93.57
2022-08-10T05:04:35.232Z,93.52
2022-08-10T05:07:09.533Z,94.44
2022-08-10T05:10:01.516Z,93.55
2022-08-10T05:12:30.800Z,92.49
2022-08-10T05:14:59.419Z,92.43
2022-08-10T05:17:27.990Z,93.42
2022-08-10T05:20:02.847Z,95.12
2022-08-10T05:22:35.676Z,94.92
2022-08-10T05:25:05.342Z,95.48
2022-08-10T05:27:47.523Z,95.87
2022-08-10T05:30:22.132Z,91.75
2022-08-10T05:32:59.234Z,92.04
2022-08-10T05:35:55.243Z,94.59
2022-08-10T05:38:21.758Z,94.68
2022-08-10T05:40:51.457Z,94.68
2022-08-10T05:43:21.906Z,90.87
2022-08-10T05:46:17.245Z,91.35
2022-08-10T05:48:58.846Z,93.86
2022-08-10T05:51:30.913Z,94.57
2022-08-10T05:54:06.111Z,92.68
2022-08-10T05:56:55.555Z,92.35
2022-08-10T06:00:33.120Z,88.17
2022-08-10T06:02:54.477Z,89.97
2022-08-10T06:05:29.645Z,92.15
2022-08-10T06:08:13.881Z,93.62
2022-08-10T06:12:23.573Z,93.67
2022-08-10T06:14:16.115Z,92.75
2022-08-10T06:16:47.217Z,93.44
2022-08-10T06:19:16.768Z,93.12
2022-08-10T06:21:59.380Z,93.02
2022-08-10T06:25:02.746Z,95.27
2022-08-10T06:27:34.442Z,96.30
2022-08-10T06:30:04.147Z,92.63
2022-08-10T06:32:55.032Z,91.92
2022-08-10T06:35:26.731Z,92.15
2022-08-10T06:37:59.002Z,89.83
2022-08-10T06:40:31.022Z,91.38
2022-08-10T06:43:01.170Z,90.16
2022-08-10T06:45:36.728Z,89.29
2022-08-10T06:48:12.607Z,89.53
2022-08-10T06:50:57.916Z,89.76
2022-08-10T06:53:52.094Z,91.52
2022-08-10T06:56:36.807Z,93.29
2022-08-10T06:59:13.363Z,89.90
2022-08-10T07:01:55.728Z,89.28
2022-08-10T07:04:47.341Z,89.41
2022-08-10T07:07:22.786Z,92.01
2022-08-10T07:09:53.606Z,92.06
2022-08-10T07:12:24.957Z,88.27
2022-08-10T07:14:55.704Z,92.16
2022-08-10T07:17:27.125Z,90.75
2022-08-10T07:20:03.255Z,88.88
2022-08-10T07:23:05.904Z,88.51
2022-08-10T07:25:28.616Z,90.18
2022-08-10T07:28:01.800Z,86.90
2022-08-10T07:30:33.591Z,86.71
2022-08-10T07:33:03.819Z,89.67
2022-08-10T07:35:42.219Z,88.29
2022-08-10T07:38:20.893Z,93.13
2022-08-10T07:40:52.193Z,89.36
2022-08-10T07:43:24.550Z,93.26
2022-08-10T07:45:54.073Z,89.41
2022-08-10T07:48:32.158Z,92.29
2022-08-10T07:51:03.499Z,92.12
2022-08-10T07:53:44.196Z,89.37
2022-08-10T07:56:32.261Z,90.97
2022-08-10T07:59:13.128Z,88.29
2022-08-10T08:01:46.115Z,87.25
2022-08-10T08:04:16.267Z,87.24
2022-08-10T08:06:46.907Z,90.22
2022-08-10T08:09:15.931Z,89.31
2022-08-10T08:11:47.617Z,88.58
2022-08-10T08:14:17.888Z,89.50
2022-08-10T08:16:51.757Z,89.14
2022-08-10T08:19:26.690Z,88.96
2022-08-10T08:24:06.693Z,88.14
2022-08-10T08:24:47.264Z,90.20
2022-08-10T08:27:20.865Z,88.81
2022-08-10T08:29:52.127Z,87.82
2022-08-10T08:32:27.266Z,88.04
2022-08-10T08:34:59.132Z,87.81
2022-08-10T08:38:31.148Z,89.66
2022-08-10T08:40:27.986Z,91.01
2022-08-10T08:43:31.554Z,91.74
2022-08-10T08:46:20.789Z,92.01
2022-08-10T08:49:07.382Z,89.05
2022-08-10T08:52:18.417Z,87.66
2022-08-10T08:55:05.312Z,90.72
2022-08-10T08:58:22.068Z,88.19
2022-08-10T09:00:59.085Z,85.96
2022-08-10T09:03:56.009Z,86.73
2022-08-10T09:06:33.756Z,86.29
2022-08-10T09:09:39.539Z,85.77
2022-08-10T09:12:35.236Z,85.58
2022-08-10T09:15:39.951Z,84.90
2022-08-10T09:18:18.523Z,86.26
2022-08-10T09:21:02.286Z,86.34
2022-08-10T09:24:04.723Z,88.68
2022-08-10T09:26:50.322Z,86.93
2022-08-10T09:29:29.053Z,85.89
2022-08-10T09:35:39.246Z,86.18
2022-08-10T09:36:29.510Z,86.20
2022-08-10T09:38:22.285Z,85.85
2022-08-10T09:41:14.974Z,85.10
2022-08-10T09:43:52.431Z,86.13
2022-08-10T09:46:57.362Z,86.75
2022-08-10T09:49:54.740Z,88.03
2022-08-10T09:52:43.150Z,88.16
2022-08-10T09:56:18.638Z,89.16
2022-08-10T09:58:41.718Z,89.96
2022-08-10T10:02:03.201Z,90.06
2022-08-10T10:04:44.583Z,90.45
2022-08-10T10:07:21.074Z,90.68
2022-08-10T10:10:24.321Z,90.11
2022-08-10T10:13:10.749Z,90.74
2022-08-10T10:16:07.486Z,91.12
2022-08-10T10:19:24.498Z,91.20
2022-08-10T10:22:25.178Z,91.46
2022-08-10T10:25:51.478Z,92.15
2022-08-10T10:29:15.350Z,92.02
2022-08-10T10:31:44.279Z,91.85
2022-08-10T10:34:39.046Z,91.71
2022-08-10T10:37:09.816Z,91.68
2022-08-10T10:39:43.814Z,91.28
2022-08-10T10:42:44.868Z,91.08
2022-08-10T10:45:49.957Z,91.35
2022-08-10T10:48:42.398Z,91.68
2022-08-10T10:51:46.112Z,91.39
2022-08-10T10:54:37.013Z,92.44
2022-08-10T10:57:59.245Z,93.24
2022-08-10T11:00:23.417Z,92.53
2022-08-10T11:03:23.742Z,91.38
2022-08-10T11:06:10.883Z,91.53
2022-08-10T11:08:45.730Z,91.19
2022-08-10T11:12:02.064Z,90.54
2022-08-10T11:14:40.563Z,91.91
2022-08-10T11:17:30.032Z,92.02
2022-08-10T11:20:05.318Z,92.19
2022-08-10T11:22:51.632Z,91.84
2022-08-10T11:25:33.350Z,90.43
2022-08-10T11:28:29.374Z,89.24
2022-08-10T11:31:16.986Z,90.72
2022-08-10T11:36:49.241Z,92.34
2022-08-10T11:39:48.748Z,91.49
2022-08-10T11:42:47.051Z,91.17
2022-08-10T11:45:29.385Z,91.54
2022-08-10T11:48:10.788Z,92.41
2022-08-10T11:51:00.459Z,91.81
2022-08-10T11:53:54.306Z,92.46
2022-08-10T11:56:46.795Z,92.09
2022-08-10T11:59:36.435Z,91.17
2022-08-10T12:02:08.398Z,91.59
2022-08-10T12:04:41.942Z,92.16
2022-08-10T12:10:06.461Z,92.94
2022-08-10T12:10:12.495Z,92.25
2022-08-10T12:12:52.043Z,92.75
2022-08-10T12:15:37.863Z,92.78
2022-08-10T12:18:18.780Z,93.43
2022-08-10T12:20:52.742Z,94.08
2022-08-10T12:23:28.006Z,93.12
2022-08-10T12:26:09.551Z,93.61
2022-08-10T12:29:16.012Z,93.77
2022-08-10T12:32:05.802Z,93.92
2022-08-10T12:34:52.425Z,93.97
2022-08-10T12:37:35.767Z,94.27
2022-08-10T12:40:36.903Z,94.14
2022-08-10T12:44:04.653Z,94.69
2022-08-10T12:46:50.834Z,94.97
2022-08-10T12:50:17.178Z,95.34
2022-08-10T12:52:52.851Z,94.62
2022-08-10T12:55:23.881Z,94.71
2022-08-10T12:57:56.721Z,94.23
2022-08-10T13:00:44.853Z,95.06
2022-08-10T13:04:23.349Z,94.82
2022-08-10T13:06:16.817Z,95.06
2022-08-10T13:09:06.489Z,95.49
2022-08-10T13:12:36.917Z,95.07
2022-08-10T13:14:39.459Z,95.21
2022-08-10T13:17:10.798Z,95.53
2022-08-10T13:19:56.095Z,95.37
2022-08-10T13:22:31.798Z,95.83
2022-08-10T13:25:04.388Z,95.87
2022-08-10T13:28:02.397Z,95.96
2022-08-10T13:30:37.308Z,95.58
2022-08-10T13:33:10.812Z,95.72
2022-08-10T13:35:40.532Z,95.75
2022-08-10T13:38:12.000Z,95.73
2022-08-10T13:40:41.382Z,96.30
2022-08-10T13:43:11.713Z,96.25
2022-08-10T13:45:49.384Z,96.60
2022-08-10T13:48:24.076Z,96.17
2022-08-10T13:50:58.168Z,96.12
2022-08-10T13:53:34.182Z,95.76
2022-08-10T13:56:06.355Z,95.26
2022-08-10T13:58:41.921Z,95.74
2022-08-10T14:01:22.043Z,95.56
2022-08-10T14:03:53.093Z,95.97
2022-08-10T14:06:29.838Z,95.84
2022-08-10T14:09:03.500Z,95.97
2022-08-10T14:11:34.283Z,96.53
2022-08-10T14:14:19.572Z,96.69
2022-08-10T14:16:49.053Z,96.17
2022-08-10T14:19:30.952Z,96.56
2022-08-10T14:22:01.737Z,97.26
2022-08-10T14:24:31.968Z,97.17
2022-08-10T14:27:11.525Z,97.87
2022-08-10T14:30:00.425Z,98.07
2022-08-10T14:32:33.694Z,97.72
2022-08-10T14:36:20.314Z,97.78
2022-08-10T14:38:01.350Z,97.67
2022-08-10T14:40:46.355Z,97.90
2022-08-10T14:43:28.521Z,98.00
2022-08-10T14:46:22.101Z,97.62
2022-08-10T14:48:52.321Z,97.42
2022-08-10T14:51:27.782Z,97.52
2022-08-10T14:54:17.619Z,98.01
2022-08-10T14:56:48.990Z,97.97
2022-08-10T14:59:20.441Z,97.67
2022-08-10T15:02:01.289Z,97.46
2022-08-10T15:04:47.708Z,97.10
2022-08-10T15:07:25.126Z,96.88
2022-08-10T15:09:59.455Z,97.32
2022-08-10T15:12:38.379Z,97.25
2022-08-10T15:15:16.492Z,97.03
2022-08-10T15:17:57.530Z,97.66
2022-08-10T15:20:28.819Z,97.37
2022-08-10T15:23:29.940Z,97.40
2022-08-10T15:26:11.030Z,97.74
2022-08-10T15:29:23.362Z,97.79
2022-08-10T15:31:57.604Z,98.12
2022-08-10T15:34:47.464Z,98.35
2022-08-10T15:37:40.588Z,98.37
2022-08-10T15:40:27.979Z,98.06
2022-08-10T15:43:24.974Z,97.72
2022-08-10T15:46:30.182Z,97.96
2022-08-10T15:49:04.469Z,98.02
2022-08-10T15:52:10.869Z,97.93
2022-08-10T15:55:42.551Z,98.16
2022-08-10T15:58:08.170Z,97.44
2022-08-10T16:00:45.473Z,97.85
2022-08-10T16:03:45.942Z,98.19
2022-08-10T16:06:55.737Z,97.94
2022-08-10T16:10:23.637Z,98.15
2022-08-10T16:12:30.044Z,98.24
2022-08-10T16:15:04.541Z,98.12
2022-08-10T16:17:54.142Z,98.21
2022-08-10T16:20:47.937Z,98.92
2022-08-10T16:23:37.490Z,98.86
2022-08-10T16:26:15.484Z,98.65
2022-08-10T16:29:01.080Z,99.09
2022-08-10T16:31:34.030Z,99.26
2022-08-10T16:34:06.738Z,99.06
2022-08-10T16:36:42.753Z,99.26
2022-08-10T16:39:16.357Z,98.79
2022-08-10T16:42:06.065Z,99.01
2022-08-10T16:45:08.307Z,99.60
2022-08-10T16:47:47.782Z,99.73
2022-08-10T16:50:22.840Z,99.45
2022-08-10T16:52:53.813Z,99.15
2022-08-10T16:55:48.858Z,99.33
2022-08-10T16:58:18.967Z,99.08
2022-08-10T17:00:50.729Z,99.28
2022-08-10T17:04:06.900Z,99.11
2022-08-10T17:07:05.179Z,100.00
2022-08-10T17:09:38.467Z,100.00
2022-08-10T17:12:12.366Z,99.79
2022-08-10T17:14:43.257Z,99.50
2022-08-10T17:17:25.829Z,99.45
2022-08-10T17:20:30.395Z,99.16
2022-08-10T17:22:54.952Z,99.21
2022-08-10T17:25:48.614Z,99.61
2022-08-10T17:28:33.156Z,99.35
2022-08-10T17:31:18.969Z,99.76
2022-08-10T17:34:13.386Z,99.26
2022-08-10T17:36:44.065Z,98.64
2022-08-10T17:39:15.239Z,99.43
2022-08-10T17:41:49.484Z,99.46
2022-08-10T17:44:19.715Z,99.77
2022-08-10T17:46:48.990Z,99.86
2022-08-10T17:49:21.578Z,100.00
2022-08-10T17:51:55.483Z,99.81
2022-08-10T17:54:35.898Z,99.69
2022-08-10T17:57:11.375Z,99.55
2022-08-10T17:59:40.946Z,99.55
2022-08-10T18:02:19.053Z,99.01
2022-08-10T18:04:57.798Z,98.88
2022-08-10T18:07:42.090Z,98.66
2022-08-10T18:10:12.782Z,98.88
2022-08-10T18:12:45.970Z,98.76
2022-08-10T18:15:23.071Z,98.82
2022-08-10T18:17:59.111Z,98.90
2022-08-10T18:20:36.595Z,98.58
2022-08-10T18:23:08.610Z,98.65
2022-08-10T18:25:40.942Z,98.98
2022-08-10T18:28:16.429Z,99.06
2022-08-10T18:30:52.455Z,99.17
2022-08-10T18:33:27.972Z,99.01
2022-08-10T18:35:58.282Z,98.97
2022-08-10T18:38:29.532Z,98.79
2022-08-10T18:41:21.342Z,98.44
2022-08-10T18:44:05.807Z,98.78
2022-08-10T18:46:47.682Z,98.72
2022-08-10T18:49:34.272Z,98.85
2022-08-10T18:52:09.608Z,98.71
2022-08-10T18:55:05.256Z,98.64
2022-08-10T18:57:43.134Z,98.70
2022-08-10T19:00:15.040Z,98.61
2022-08-10T19:02:58.466Z,99.01
2022-08-10T19:05:44.344Z,98.94
2022-08-10T19:08:30.009Z,99.27
2022-08-10T19:11:28.904Z,98.65
2022-08-10T19:14:04.262Z,98.95
2022-08-10T19:16:57.059Z,98.72
2022-08-10T19:20:09.770Z,99.00
2022-08-10T19:22:52.883Z,98.99
2022-08-10T19:26:39.395Z,99.53
2022-08-10T19:30:00.992Z,98.92
2022-08-10T19:32:33.014Z,99.25
2022-08-10T19:35:23.644Z,98.74
2022-08-10T19:38:01.850Z,99.24
2022-08-10T19:41:10.013Z,99.32
2022-08-10T19:44:01.734Z,99.27
2022-08-10T19:46:45.032Z,99.19
2022-08-10T19:49:51.404Z,99.51
2022-08-10T19:52:34.488Z,99.66
2022-08-10T19:55:23.129Z,99.50
2022-08-10T19:58:18.088Z,99.22
2022-08-10T20:01:00.321Z,99.53
2022-08-10T20:03:47.011Z,99.68
2022-08-10T20:06:26.068Z,99.62
2022-08-10T20:08:58.037Z,99.69
2022-08-10T20:11:59.631Z,99.62
2022-08-10T20:14:40.508Z,99.53
2022-08-10T20:17:27.565Z,99.80
2022-08-10T20:20:11.012Z,99.91
2022-08-10T20:22:49.280Z,99.30
2022-08-10T20:25:32.771Z,99.17
2022-08-10T20:28:12.985Z,99.31
2022-08-10T20:30:48.379Z,99.32
2022-08-10T20:33:19.785Z,99.30
2022-08-10T20:35:57.662Z,99.17
2022-08-10T20:39:06.907Z,99.53
2022-08-10T20:41:47.284Z,99.27
2022-08-10T20:44:40.402Z,100.00
2022-08-10T20:47:28.823Z,99.80
2022-08-10T20:50:21.352Z,100.00
2022-08-10T20:52:53.072Z,99.80
2022-08-10T20:55:26.602Z,100.00
2022-08-10T20:58:16.171Z,99.66
2022-08-10T21:01:20.256Z,99.99
2022-08-10T21:04:14.900Z,99.86
2022-08-10T21:07:44.133Z,100.00
2022-08-10T21:10:28.341Z,100.00
2022-08-10T21:13:02.609Z,100.00
2022-08-10T21:16:08.002Z,100.00
2022-08-10T21:19:17.673Z,100.00
2022-08-10T21:21:59.180Z,100.00
2022-08-10T21:24:55.184Z,100.00
2022-08-10T21:27:24.009Z,99.96
2022-08-10T21:30:10.297Z,100.00
2022-08-10T21:32:50.802Z,99.96
2022-08-10T21:35:52.106Z,100.00
2022-08-10T21:38:55.036Z,100.00
2022-08-10T21:41:56.687Z,100.00
2022-08-10T21:45:16.696Z,100.00
2022-08-10T21:48:31.036Z,99.78
2022-08-10T21:51:24.474Z,99.66
2022-08-10T21:54:40.668Z,99.55
2022-08-10T21:57:43.551Z,99.91
2022-08-10T22:00:44.693Z,100.00
2022-08-10T22:03:39.617Z,99.57
2022-08-10T22:06:30.016Z,99.75
2022-08-10T22:09:25.208Z,100.00
2022-08-10T22:12:31.083Z,100.00
2022-08-10T22:16:01.554Z,100.00
2022-08-10T22:19:01.771Z,100.00
2022-08-10T22:22:26.977Z,100.00
2022-08-10T22:25:17.861Z,100.00
2022-08-10T22:28:13.629Z,100.00
2022-08-10T22:31:31.066Z,100.00
2022-08-10T22:34:40.025Z,100.00
2022-08-10T22:38:07.744Z,100.00
2022-08-10T22:40:55.668Z,99.98
2022-08-10T22:43:50.014Z,99.91
2022-08-10T22:46:47.449Z,100.00
2022-08-10T22:49:26.774Z,100.00
2022-08-10T22:52:07.912Z,100.00
2022-08-10T22:55:07.804Z,100.00
2022-08-10T22:57:54.886Z,100.00
2022-08-10T23:00:30.698Z,100.00
2022-08-10T23:03:13.888Z,100.00
2022-08-10T23:06:15.879Z,100.00
2022-08-10T23:08:58.243Z,100.00
2022-08-10T23:11:39.499Z,100.00
2022-08-10T23:14:10.867Z,100.00
2022-08-10T23:17:03.847Z,100.00
2022-08-10T23:19:46.111Z,100.00
2022-08-10T23:22:17.699Z,100.00
2022-08-10T23:24:53.127Z,100.00
2022-08-10T23:27:37.882Z,100.00
2022-08-10T23:30:17.129Z,100.00
2022-08-10T23:32:53.134Z,100.00
2022-08-10T23:36:05.681Z,100.00
2022-08-10T23:38:17.294Z,100.00
2022-08-10T23:40:50.020Z,99.96
2022-08-10T23:43:46.732Z,100.00
2022-08-10T23:46:16.870Z,100.00
2022-08-10T23:48:48.369Z,99.89
2022-08-10T23:51:19.789Z,100.00
2022-08-10T23:53:51.357Z,100.00
2022-08-10T23:56:26.434Z,100.00
2022-08-10T23:58:56.916Z,99.52
